sensor_id;sensor_type;location;lat;lon;timestamp;P1;durP1;ratioP1;P2;durP2;ratioP2
30301;SDS011;17111;52.130;5.028;2024-03-17T00:02:22;17.25;;;10.93;;
30301;SDS011;17111;52.130;5.028;2024-03-17T00:04:48;16.38;;;10.77;;
30301;SDS011;17111;52.130;5.028;2024-03-17T00:07:13;14.70;;;10.00;;
30301;SDS011;17111;52.130;5.028;2024-03-17T00:09:40;17.35;;;10.77;;
30301;SDS011;17111;52.130;5.028;2024-03-17T00:12:06;16.00;;;10.15;;
30301;SDS011;17111;52.130;5.028;2024-03-17T00:14:33;17.48;;;10.15;;
30301;SDS011;17111;52.130;5.028;2024-03-17T00:17:00;16.00;;;9.68;;
30301;SDS011;17111;52.130;5.028;2024-03-17T00:19:26;16.23;;;9.25;;
30301;SDS011;17111;52.130;5.028;2024-03-17T00:21:52;14.55;;;9.65;;
30301;SDS011;17111;52.130;5.028;2024-03-17T00:24:18;15.25;;;9.32;;
30301;SDS011;17111;52.130;5.028;2024-03-17T00:26:45;14.27;;;9.13;;
30301;SDS011;17111;52.130;5.028;2024-03-17T00:29:11;13.68;;;9.40;;
30301;SDS011;17111;52.130;5.028;2024-03-17T00:31:36;15.23;;;9.30;;
30301;SDS011;17111;52.130;5.028;2024-03-17T00:34:02;14.23;;;8.95;;
30301;SDS011;17111;52.130;5.028;2024-03-17T00:36:29;14.35;;;9.02;;
30301;SDS011;17111;52.130;5.028;2024-03-17T00:38:55;14.30;;;8.52;;
30301;SDS011;17111;52.130;5.028;2024-03-17T00:41:22;15.10;;;9.65;;
30301;SDS011;17111;52.130;5.028;2024-03-17T00:43:49;13.63;;;8.23;;
30301;SDS011;17111;52.130;5.028;2024-03-17T00:46:18;12.85;;;8.27;;
30301;SDS011;17111;52.130;5.028;2024-03-17T00:48:49;13.45;;;8.18;;
30301;SDS011;17111;52.130;5.028;2024-03-17T00:51:15;12.23;;;7.97;;
30301;SDS011;17111;52.130;5.028;2024-03-17T00:53:41;13.40;;;8.32;;
30301;SDS011;17111;52.130;5.028;2024-03-17T00:56:07;14.75;;;8.35;;
30301;SDS011;17111;52.130;5.028;2024-03-17T00:58:32;12.68;;;7.65;;
30301;SDS011;17111;52.130;5.028;2024-03-17T01:00:58;12.98;;;7.50;;
30301;SDS011;17111;52.130;5.028;2024-03-17T01:03:24;13.25;;;7.60;;
30301;SDS011;17111;52.130;5.028;2024-03-17T01:05:49;11.45;;;6.90;;
30301;SDS011;17111;52.130;5.028;2024-03-17T01:08:18;11.65;;;7.53;;
30301;SDS011;17111;52.130;5.028;2024-03-17T01:10:44;13.02;;;7.45;;
30301;SDS011;17111;52.130;5.028;2024-03-17T01:13:11;13.32;;;7.93;;
30301;SDS011;17111;52.130;5.028;2024-03-17T01:15:37;12.13;;;7.40;;
30301;SDS011;17111;52.130;5.028;2024-03-17T01:18:03;12.75;;;7.57;;
30301;SDS011;17111;52.130;5.028;2024-03-17T01:20:30;11.15;;;6.47;;
30301;SDS011;17111;52.130;5.028;2024-03-17T01:22:56;11.63;;;6.63;;
30301;SDS011;17111;52.130;5.028;2024-03-17T01:25:22;11.48;;;5.90;;
30301;SDS011;17111;52.130;5.028;2024-03-17T01:27:49;10.57;;;6.45;;
30301;SDS011;17111;52.130;5.028;2024-03-17T01:30:14;11.40;;;6.78;;
30301;SDS011;17111;52.130;5.028;2024-03-17T01:32:40;12.80;;;7.50;;
30301;SDS011;17111;52.130;5.028;2024-03-17T01:35:06;9.63;;;6.55;;
30301;SDS011;17111;52.130;5.028;2024-03-17T01:37:31;13.25;;;6.93;;
30301;SDS011;17111;52.130;5.028;2024-03-17T01:39:58;10.38;;;6.45;;
30301;SDS011;17111;52.130;5.028;2024-03-17T01:42:24;10.45;;;6.00;;
30301;SDS011;17111;52.130;5.028;2024-03-17T01:44:49;13.23;;;7.05;;
30301;SDS011;17111;52.130;5.028;2024-03-17T01:47:18;10.48;;;6.65;;
30301;SDS011;17111;52.130;5.028;2024-03-17T01:49:47;10.95;;;6.32;;
30301;SDS011;17111;52.130;5.028;2024-03-17T01:52:15;10.32;;;6.47;;
30301;SDS011;17111;52.130;5.028;2024-03-17T01:54:42;9.15;;;6.07;;
30301;SDS011;17111;52.130;5.028;2024-03-17T01:57:08;13.13;;;5.93;;
30301;SDS011;17111;52.130;5.028;2024-03-17T01:59:35;8.98;;;5.50;;
30301;SDS011;17111;52.130;5.028;2024-03-17T02:02:01;11.32;;;6.38;;
30301;SDS011;17111;52.130;5.028;2024-03-17T02:04:27;7.75;;;5.45;;
30301;SDS011;17111;52.130;5.028;2024-03-17T02:06:53;8.35;;;5.97;;
30301;SDS011;17111;52.130;5.028;2024-03-17T02:09:19;9.25;;;5.68;;
30301;SDS011;17111;52.130;5.028;2024-03-17T02:11:47;8.20;;;5.35;;
30301;SDS011;17111;52.130;5.028;2024-03-17T02:14:13;9.13;;;5.18;;
30301;SDS011;17111;52.130;5.028;2024-03-17T02:16:43;8.35;;;5.25;;
30301;SDS011;17111;52.130;5.028;2024-03-17T02:19:08;8.10;;;5.25;;
30301;SDS011;17111;52.130;5.028;2024-03-17T02:21:35;6.38;;;4.43;;
30301;SDS011;17111;52.130;5.028;2024-03-17T02:24:00;7.82;;;5.10;;
30301;SDS011;17111;52.130;5.028;2024-03-17T02:26:28;6.63;;;4.63;;
30301;SDS011;17111;52.130;5.028;2024-03-17T02:28:53;7.80;;;4.93;;
30301;SDS011;17111;52.130;5.028;2024-03-17T02:31:19;8.48;;;5.03;;
30301;SDS011;17111;52.130;5.028;2024-03-17T02:33:45;7.97;;;5.13;;
30301;SDS011;17111;52.130;5.028;2024-03-17T02:36:12;7.18;;;4.43;;
30301;SDS011;17111;52.130;5.028;2024-03-17T02:38:41;5.65;;;4.15;;
30301;SDS011;17111;52.130;5.028;2024-03-17T02:41:25;6.88;;;4.47;;
30301;SDS011;17111;52.130;5.028;2024-03-17T02:43:52;7.70;;;4.35;;
30301;SDS011;17111;52.130;5.028;2024-03-17T02:46:18;6.55;;;4.45;;
30301;SDS011;17111;52.130;5.028;2024-03-17T02:48:44;8.80;;;5.10;;
30301;SDS011;17111;52.130;5.028;2024-03-17T02:51:13;8.80;;;4.90;;
30301;SDS011;17111;52.130;5.028;2024-03-17T02:53:43;6.38;;;4.47;;
30301;SDS011;17111;52.130;5.028;2024-03-17T02:56:12;6.90;;;5.00;;
30301;SDS011;17111;52.130;5.028;2024-03-17T02:58:41;8.25;;;4.72;;
30301;SDS011;17111;52.130;5.028;2024-03-17T03:01:08;6.28;;;4.25;;
30301;SDS011;17111;52.130;5.028;2024-03-17T03:03:35;6.47;;;3.95;;
30301;SDS011;17111;52.130;5.028;2024-03-17T03:06:01;6.75;;;4.25;;
30301;SDS011;17111;52.130;5.028;2024-03-17T03:08:30;6.45;;;4.07;;
30301;SDS011;17111;52.130;5.028;2024-03-17T03:10:56;7.50;;;4.30;;
30301;SDS011;17111;52.130;5.028;2024-03-17T03:13:21;6.93;;;4.30;;
30301;SDS011;17111;52.130;5.028;2024-03-17T03:15:48;6.72;;;4.28;;
30301;SDS011;17111;52.130;5.028;2024-03-17T03:18:14;5.35;;;3.53;;
30301;SDS011;17111;52.130;5.028;2024-03-17T03:20:40;6.13;;;4.35;;
30301;SDS011;17111;52.130;5.028;2024-03-17T03:23:06;6.75;;;4.63;;
30301;SDS011;17111;52.130;5.028;2024-03-17T03:25:32;6.97;;;4.47;;
30301;SDS011;17111;52.130;5.028;2024-03-17T03:27:57;6.68;;;4.22;;
30301;SDS011;17111;52.130;5.028;2024-03-17T03:30:23;5.72;;;3.83;;
30301;SDS011;17111;52.130;5.028;2024-03-17T03:32:49;6.15;;;3.88;;
30301;SDS011;17111;52.130;5.028;2024-03-17T03:35:15;5.10;;;3.60;;
30301;SDS011;17111;52.130;5.028;2024-03-17T03:37:41;6.20;;;3.88;;
30301;SDS011;17111;52.130;5.028;2024-03-17T03:40:07;6.97;;;3.72;;
30301;SDS011;17111;52.130;5.028;2024-03-17T03:42:44;5.57;;;3.47;;
30301;SDS011;17111;52.130;5.028;2024-03-17T03:45:11;5.15;;;3.88;;
30301;SDS011;17111;52.130;5.028;2024-03-17T03:47:40;5.63;;;3.80;;
30301;SDS011;17111;52.130;5.028;2024-03-17T03:50:09;5.65;;;3.58;;
30301;SDS011;17111;52.130;5.028;2024-03-17T03:52:36;4.55;;;3.20;;
30301;SDS011;17111;52.130;5.028;2024-03-17T03:55:02;4.25;;;3.33;;
30301;SDS011;17111;52.130;5.028;2024-03-17T03:57:29;5.43;;;3.65;;
30301;SDS011;17111;52.130;5.028;2024-03-17T03:59:57;5.63;;;3.17;;
30301;SDS011;17111;52.130;5.028;2024-03-17T04:02:24;5.35;;;3.97;;
30301;SDS011;17111;52.130;5.028;2024-03-17T04:04:56;5.32;;;3.88;;
30301;SDS011;17111;52.130;5.028;2024-03-17T04:07:23;5.40;;;3.22;;
30301;SDS011;17111;52.130;5.028;2024-03-17T04:09:48;5.72;;;3.40;;
30301;SDS011;17111;52.130;5.028;2024-03-17T04:12:14;3.97;;;3.00;;
30301;SDS011;17111;52.130;5.028;2024-03-17T04:14:40;5.82;;;3.63;;
30301;SDS011;17111;52.130;5.028;2024-03-17T04:17:05;4.30;;;3.28;;
30301;SDS011;17111;52.130;5.028;2024-03-17T04:19:31;5.25;;;3.15;;
30301;SDS011;17111;52.130;5.028;2024-03-17T04:21:57;4.88;;;3.60;;
30301;SDS011;17111;52.130;5.028;2024-03-17T04:24:22;4.05;;;3.30;;
30301;SDS011;17111;52.130;5.028;2024-03-17T04:26:48;4.10;;;2.83;;
30301;SDS011;17111;52.130;5.028;2024-03-17T04:29:13;7.07;;;3.60;;
30301;SDS011;17111;52.130;5.028;2024-03-17T04:31:40;5.38;;;2.92;;
30301;SDS011;17111;52.130;5.028;2024-03-17T04:34:07;4.28;;;2.63;;
30301;SDS011;17111;52.130;5.028;2024-03-17T04:36:32;4.20;;;3.03;;
30301;SDS011;17111;52.130;5.028;2024-03-17T04:38:58;4.93;;;3.20;;
30301;SDS011;17111;52.130;5.028;2024-03-17T04:41:24;5.50;;;3.50;;
30301;SDS011;17111;52.130;5.028;2024-03-17T04:43:49;5.78;;;3.13;;
30301;SDS011;17111;52.130;5.028;2024-03-17T04:46:15;4.13;;;2.90;;
30301;SDS011;17111;52.130;5.028;2024-03-17T04:48:41;7.28;;;3.13;;
30301;SDS011;17111;52.130;5.028;2024-03-17T04:51:07;4.40;;;3.03;;
30301;SDS011;17111;52.130;5.028;2024-03-17T04:53:32;3.95;;;2.90;;
30301;SDS011;17111;52.130;5.028;2024-03-17T04:56:04;5.35;;;3.00;;
30301;SDS011;17111;52.130;5.028;2024-03-17T04:58:31;4.15;;;3.05;;
30301;SDS011;17111;52.130;5.028;2024-03-17T05:00:57;4.05;;;2.92;;
30301;SDS011;17111;52.130;5.028;2024-03-17T05:03:28;4.13;;;2.90;;
30301;SDS011;17111;52.130;5.028;2024-03-17T05:06:00;4.80;;;3.22;;
30301;SDS011;17111;52.130;5.028;2024-03-17T05:08:29;4.50;;;2.85;;
30301;SDS011;17111;52.130;5.028;2024-03-17T05:10:59;4.43;;;2.90;;
30301;SDS011;17111;52.130;5.028;2024-03-17T05:13:28;4.35;;;3.10;;
30301;SDS011;17111;52.130;5.028;2024-03-17T05:15:54;4.72;;;3.22;;
30301;SDS011;17111;52.130;5.028;2024-03-17T05:18:20;4.82;;;3.35;;
30301;SDS011;17111;52.130;5.028;2024-03-17T05:20:56;4.25;;;3.08;;
30301;SDS011;17111;52.130;5.028;2024-03-17T05:23:24;4.00;;;3.28;;
30301;SDS011;17111;52.130;5.028;2024-03-17T05:26:00;5.18;;;3.50;;
30301;SDS011;17111;52.130;5.028;2024-03-17T05:28:27;5.78;;;3.60;;
30301;SDS011;17111;52.130;5.028;2024-03-17T05:30:54;5.25;;;3.15;;
30301;SDS011;17111;52.130;5.028;2024-03-17T05:33:22;5.15;;;2.78;;
30301;SDS011;17111;52.130;5.028;2024-03-17T05:35:58;4.25;;;3.30;;
30301;SDS011;17111;52.130;5.028;2024-03-17T05:38:28;3.17;;;2.70;;
30301;SDS011;17111;52.130;5.028;2024-03-17T05:40:58;4.35;;;3.17;;
30301;SDS011;17111;52.130;5.028;2024-03-17T05:43:29;3.83;;;2.95;;
30301;SDS011;17111;52.130;5.028;2024-03-17T05:45:59;3.03;;;2.72;;
30301;SDS011;17111;52.130;5.028;2024-03-17T05:48:29;4.18;;;3.30;;
30301;SDS011;17111;52.130;5.028;2024-03-17T05:50:55;5.07;;;3.67;;
30301;SDS011;17111;52.130;5.028;2024-03-17T05:53:21;4.18;;;3.20;;
30301;SDS011;17111;52.130;5.028;2024-03-17T05:55:49;4.00;;;2.88;;
30301;SDS011;17111;52.130;5.028;2024-03-17T05:58:15;4.55;;;3.05;;
30301;SDS011;17111;52.130;5.028;2024-03-17T06:00:41;4.00;;;3.30;;
30301;SDS011;17111;52.130;5.028;2024-03-17T06:03:08;3.33;;;2.88;;
30301;SDS011;17111;52.130;5.028;2024-03-17T06:05:34;5.45;;;3.35;;
30301;SDS011;17111;52.130;5.028;2024-03-17T06:08:04;3.85;;;3.20;;
30301;SDS011;17111;52.130;5.028;2024-03-17T06:10:33;4.05;;;3.03;;
30301;SDS011;17111;52.130;5.028;2024-03-17T06:12:59;4.82;;;3.15;;
30301;SDS011;17111;52.130;5.028;2024-03-17T06:15:26;4.35;;;3.10;;
30301;SDS011;17111;52.130;5.028;2024-03-17T06:17:55;5.38;;;3.33;;
30301;SDS011;17111;52.130;5.028;2024-03-17T06:20:24;3.45;;;2.92;;
30301;SDS011;17111;52.130;5.028;2024-03-17T06:22:53;4.75;;;2.85;;
30301;SDS011;17111;52.130;5.028;2024-03-17T06:25:19;3.60;;;2.83;;
30301;SDS011;17111;52.130;5.028;2024-03-17T06:27:49;4.30;;;3.53;;
30301;SDS011;17111;52.130;5.028;2024-03-17T06:30:16;3.53;;;3.03;;
30301;SDS011;17111;52.130;5.028;2024-03-17T06:32:42;3.95;;;2.78;;
30301;SDS011;17111;52.130;5.028;2024-03-17T06:35:11;2.97;;;2.53;;
30301;SDS011;17111;52.130;5.028;2024-03-17T06:37:41;3.83;;;2.95;;
30301;SDS011;17111;52.130;5.028;2024-03-17T06:40:08;3.33;;;2.63;;
30301;SDS011;17111;52.130;5.028;2024-03-17T06:42:38;3.17;;;2.75;;
30301;SDS011;17111;52.130;5.028;2024-03-17T06:45:04;4.30;;;3.08;;
30301;SDS011;17111;52.130;5.028;2024-03-17T06:47:33;4.32;;;3.05;;
30301;SDS011;17111;52.130;5.028;2024-03-17T06:50:00;4.45;;;3.17;;
30301;SDS011;17111;52.130;5.028;2024-03-17T06:52:26;5.45;;;3.10;;
30301;SDS011;17111;52.130;5.028;2024-03-17T06:54:51;3.40;;;2.53;;
30301;SDS011;17111;52.130;5.028;2024-03-17T06:57:17;3.67;;;2.58;;
30301;SDS011;17111;52.130;5.028;2024-03-17T06:59:43;3.30;;;2.35;;
30301;SDS011;17111;52.130;5.028;2024-03-17T07:02:09;4.20;;;2.60;;
30301;SDS011;17111;52.130;5.028;2024-03-17T07:04:37;3.85;;;2.80;;
30301;SDS011;17111;52.130;5.028;2024-03-17T07:07:03;3.55;;;2.40;;
30301;SDS011;17111;52.130;5.028;2024-03-17T07:09:29;3.63;;;2.92;;
30301;SDS011;17111;52.130;5.028;2024-03-17T07:11:54;3.50;;;2.25;;
30301;SDS011;17111;52.130;5.028;2024-03-17T07:14:20;3.28;;;2.35;;
30301;SDS011;17111;52.130;5.028;2024-03-17T07:16:45;3.28;;;2.53;;
30301;SDS011;17111;52.130;5.028;2024-03-17T07:19:11;4.13;;;2.60;;
30301;SDS011;17111;52.130;5.028;2024-03-17T07:21:37;2.90;;;2.38;;
30301;SDS011;17111;52.130;5.028;2024-03-17T07:24:02;2.80;;;2.38;;
30301;SDS011;17111;52.130;5.028;2024-03-17T07:26:30;3.33;;;2.45;;
30301;SDS011;17111;52.130;5.028;2024-03-17T07:28:56;3.53;;;2.85;;
30301;SDS011;17111;52.130;5.028;2024-03-17T07:31:21;3.97;;;2.75;;
30301;SDS011;17111;52.130;5.028;2024-03-17T07:33:47;3.58;;;2.55;;
30301;SDS011;17111;52.130;5.028;2024-03-17T07:36:14;4.28;;;3.00;;
30301;SDS011;17111;52.130;5.028;2024-03-17T07:38:40;3.10;;;2.60;;
30301;SDS011;17111;52.130;5.028;2024-03-17T07:41:06;2.75;;;2.53;;
30301;SDS011;17111;52.130;5.028;2024-03-17T07:43:36;3.28;;;2.72;;
30301;SDS011;17111;52.130;5.028;2024-03-17T07:46:04;2.97;;;2.65;;
30301;SDS011;17111;52.130;5.028;2024-03-17T07:48:31;5.35;;;3.00;;
30301;SDS011;17111;52.130;5.028;2024-03-17T07:50:58;4.32;;;2.95;;
30301;SDS011;17111;52.130;5.028;2024-03-17T07:53:34;3.65;;;3.10;;
30301;SDS011;17111;52.130;5.028;2024-03-17T07:58:27;9.77;;;5.60;;
30301;SDS011;17111;52.130;5.028;2024-03-17T08:00:56;10.90;;;8.00;;
30301;SDS011;17111;52.130;5.028;2024-03-17T08:03:25;12.48;;;8.15;;
30301;SDS011;17111;52.130;5.028;2024-03-17T08:05:51;12.05;;;9.43;;
30301;SDS011;17111;52.130;5.028;2024-03-17T08:08:18;14.00;;;9.77;;
30301;SDS011;17111;52.130;5.028;2024-03-17T08:10:44;14.68;;;10.50;;
30301;SDS011;17111;52.130;5.028;2024-03-17T08:13:09;15.45;;;10.20;;
30301;SDS011;17111;52.130;5.028;2024-03-17T08:15:35;14.15;;;9.80;;
30301;SDS011;17111;52.130;5.028;2024-03-17T08:18:02;16.52;;;10.80;;
30301;SDS011;17111;52.130;5.028;2024-03-17T08:20:39;15.15;;;10.30;;
30301;SDS011;17111;52.130;5.028;2024-03-17T08:23:06;15.23;;;10.95;;
30301;SDS011;17111;52.130;5.028;2024-03-17T08:25:32;14.95;;;10.80;;
30301;SDS011;17111;52.130;5.028;2024-03-17T08:27:59;15.55;;;10.70;;
30301;SDS011;17111;52.130;5.028;2024-03-17T08:30:25;15.02;;;10.80;;
30301;SDS011;17111;52.130;5.028;2024-03-17T08:32:50;14.68;;;10.73;;
30301;SDS011;17111;52.130;5.028;2024-03-17T08:35:16;16.95;;;10.80;;
30301;SDS011;17111;52.130;5.028;2024-03-17T08:37:42;18.10;;;11.25;;
30301;SDS011;17111;52.130;5.028;2024-03-17T08:40:07;16.95;;;10.98;;
30301;SDS011;17111;52.130;5.028;2024-03-17T08:42:33;17.20;;;11.52;;
30301;SDS011;17111;52.130;5.028;2024-03-17T08:44:59;15.95;;;11.25;;
30301;SDS011;17111;52.130;5.028;2024-03-17T08:47:24;16.75;;;11.25;;
30301;SDS011;17111;52.130;5.028;2024-03-17T08:49:50;20.05;;;12.93;;
30301;SDS011;17111;52.130;5.028;2024-03-17T08:52:16;16.48;;;12.50;;
30301;SDS011;17111;52.130;5.028;2024-03-17T08:54:45;16.52;;;11.82;;
30301;SDS011;17111;52.130;5.028;2024-03-17T08:57:12;22.13;;;12.88;;
30301;SDS011;17111;52.130;5.028;2024-03-17T08:59:38;24.23;;;15.23;;
30301;SDS011;17111;52.130;5.028;2024-03-17T09:02:03;27.30;;;16.80;;
30301;SDS011;17111;52.130;5.028;2024-03-17T09:04:29;25.05;;;16.42;;
30301;SDS011;17111;52.130;5.028;2024-03-17T09:06:56;26.30;;;17.10;;
30301;SDS011;17111;52.130;5.028;2024-03-17T09:09:22;27.35;;;17.15;;
30301;SDS011;17111;52.130;5.028;2024-03-17T09:11:48;23.40;;;16.63;;
30301;SDS011;17111;52.130;5.028;2024-03-17T09:14:13;25.85;;;16.75;;
30301;SDS011;17111;52.130;5.028;2024-03-17T09:16:39;26.15;;;15.88;;
30301;SDS011;17111;52.130;5.028;2024-03-17T09:19:05;24.10;;;16.33;;
30301;SDS011;17111;52.130;5.028;2024-03-17T09:21:30;25.40;;;16.90;;
30301;SDS011;17111;52.130;5.028;2024-03-17T09:23:56;24.42;;;15.80;;
30301;SDS011;17111;52.130;5.028;2024-03-17T09:26:22;23.02;;;16.02;;
30301;SDS011;17111;52.130;5.028;2024-03-17T09:28:47;23.08;;;15.55;;
30301;SDS011;17111;52.130;5.028;2024-03-17T09:31:13;21.23;;;14.80;;
30301;SDS011;17111;52.130;5.028;2024-03-17T09:33:39;24.98;;;16.48;;
30301;SDS011;17111;52.130;5.028;2024-03-17T09:36:08;27.25;;;17.98;;
30301;SDS011;17111;52.130;5.028;2024-03-17T09:38:39;30.08;;;20.38;;
30301;SDS011;17111;52.130;5.028;2024-03-17T09:41:05;29.58;;;20.02;;
30301;SDS011;17111;52.130;5.028;2024-03-17T09:43:32;35.03;;;22.85;;
30301;SDS011;17111;52.130;5.028;2024-03-17T09:45:58;35.78;;;22.80;;
30301;SDS011;17111;52.130;5.028;2024-03-17T09:48:25;37.25;;;24.23;;
30301;SDS011;17111;52.130;5.028;2024-03-17T09:51:01;38.13;;;24.02;;
30301;SDS011;17111;52.130;5.028;2024-03-17T09:53:31;37.72;;;23.98;;
30301;SDS011;17111;52.130;5.028;2024-03-17T09:56:11;34.28;;;21.42;;
30301;SDS011;17111;52.130;5.028;2024-03-17T09:58:45;33.80;;;21.25;;
30301;SDS011;17111;52.130;5.028;2024-03-17T10:01:11;33.78;;;21.70;;
30301;SDS011;17111;52.130;5.028;2024-03-17T10:06:10;33.42;;;19.85;;
30301;SDS011;17111;52.130;5.028;2024-03-17T10:08:56;32.60;;;21.23;;
30301;SDS011;17111;52.130;5.028;2024-03-17T10:11:23;39.85;;;22.25;;
30301;SDS011;17111;52.130;5.028;2024-03-17T10:14:00;35.22;;;21.85;;
30301;SDS011;17111;52.130;5.028;2024-03-17T10:16:37;33.20;;;20.48;;
30301;SDS011;17111;52.130;5.028;2024-03-17T10:19:08;32.30;;;19.77;;
30301;SDS011;17111;52.130;5.028;2024-03-17T10:21:35;30.80;;;19.50;;
30301;SDS011;17111;52.130;5.028;2024-03-17T10:26:46;32.60;;;20.83;;
30301;SDS011;17111;52.130;5.028;2024-03-17T10:29:36;32.13;;;19.70;;
30301;SDS011;17111;52.130;5.028;2024-03-17T10:32:14;44.17;;;23.17;;
30301;SDS011;17111;52.130;5.028;2024-03-17T10:34:43;37.10;;;21.50;;
30301;SDS011;17111;52.130;5.028;2024-03-17T10:37:15;47.05;;;26.23;;
30301;SDS011;17111;52.130;5.028;2024-03-17T10:39:45;46.60;;;25.45;;
30301;SDS011;17111;52.130;5.028;2024-03-17T10:42:13;42.53;;;23.00;;
30301;SDS011;17111;52.130;5.028;2024-03-17T10:44:40;43.30;;;24.30;;
30301;SDS011;17111;52.130;5.028;2024-03-17T10:47:17;45.88;;;23.88;;
30301;SDS011;17111;52.130;5.028;2024-03-17T10:49:46;46.38;;;28.85;;
30301;SDS011;17111;52.130;5.028;2024-03-17T10:52:15;53.00;;;27.98;;
30301;SDS011;17111;52.130;5.028;2024-03-17T10:54:47;40.25;;;25.10;;
30301;SDS011;17111;52.130;5.028;2024-03-17T10:57:24;45.50;;;27.55;;
30301;SDS011;17111;52.130;5.028;2024-03-17T10:59:59;44.72;;;27.65;;
30301;SDS011;17111;52.130;5.028;2024-03-17T11:02:26;49.47;;;28.92;;
30301;SDS011;17111;52.130;5.028;2024-03-17T11:05:01;39.72;;;24.95;;
30301;SDS011;17111;52.130;5.028;2024-03-17T11:07:46;41.70;;;25.88;;
30301;SDS011;17111;52.130;5.028;2024-03-17T11:10:14;44.42;;;26.52;;
30301;SDS011;17111;52.130;5.028;2024-03-17T11:12:45;49.10;;;27.02;;
30301;SDS011;17111;52.130;5.028;2024-03-17T11:20:37;41.65;;;26.83;;
30301;SDS011;17111;52.130;5.028;2024-03-17T11:23:03;40.80;;;26.80;;
30301;SDS011;17111;52.130;5.028;2024-03-17T11:27:59;39.33;;;25.92;;
30301;SDS011;17111;52.130;5.028;2024-03-17T11:47:08;34.08;;;21.00;;
30301;SDS011;17111;52.130;5.028;2024-03-17T11:49:34;36.65;;;22.08;;
30301;SDS011;17111;52.130;5.028;2024-03-17T11:52:03;32.75;;;20.35;;
30301;SDS011;17111;52.130;5.028;2024-03-17T11:54:33;34.13;;;22.33;;
30301;SDS011;17111;52.130;5.028;2024-03-17T11:57:01;30.38;;;18.25;;
30301;SDS011;17111;52.130;5.028;2024-03-17T11:59:28;32.20;;;20.05;;
30301;SDS011;17111;52.130;5.028;2024-03-17T12:01:54;24.63;;;16.77;;
30301;SDS011;17111;52.130;5.028;2024-03-17T12:04:21;29.25;;;18.85;;
30301;SDS011;17111;52.130;5.028;2024-03-17T12:06:49;28.85;;;18.70;;
30301;SDS011;17111;52.130;5.028;2024-03-17T12:09:19;29.40;;;18.48;;
30301;SDS011;17111;52.130;5.028;2024-03-17T12:11:50;31.73;;;21.80;;
30301;SDS011;17111;52.130;5.028;2024-03-17T12:14:23;36.35;;;23.20;;
30301;SDS011;17111;52.130;5.028;2024-03-17T12:16:51;36.90;;;22.00;;
30301;SDS011;17111;52.130;5.028;2024-03-17T12:19:20;34.40;;;22.77;;
30301;SDS011;17111;52.130;5.028;2024-03-17T12:21:50;40.53;;;24.35;;
30301;SDS011;17111;52.130;5.028;2024-03-17T12:24:18;43.05;;;27.88;;
30301;SDS011;17111;52.130;5.028;2024-03-17T12:26:45;36.03;;;24.58;;
30301;SDS011;17111;52.130;5.028;2024-03-17T12:29:26;44.70;;;27.55;;
30301;SDS011;17111;52.130;5.028;2024-03-17T12:31:55;39.92;;;24.83;;
30301;SDS011;17111;52.130;5.028;2024-03-17T12:34:22;37.15;;;23.92;;
30301;SDS011;17111;52.130;5.028;2024-03-17T12:36:51;35.08;;;23.17;;
30301;SDS011;17111;52.130;5.028;2024-03-17T12:39:28;32.45;;;22.20;;
30301;SDS011;17111;52.130;5.028;2024-03-17T12:42:07;31.10;;;20.13;;
30301;SDS011;17111;52.130;5.028;2024-03-17T12:44:39;26.77;;;18.95;;
30301;SDS011;17111;52.130;5.028;2024-03-17T12:47:25;28.63;;;19.15;;
30301;SDS011;17111;52.130;5.028;2024-03-17T12:49:55;28.90;;;19.27;;
30301;SDS011;17111;52.130;5.028;2024-03-17T12:57:46;25.83;;;18.27;;
30301;SDS011;17111;52.130;5.028;2024-03-17T13:00:32;25.58;;;17.02;;
30301;SDS011;17111;52.130;5.028;2024-03-17T13:03:01;25.60;;;17.65;;
30301;SDS011;17111;52.130;5.028;2024-03-17T13:05:28;23.20;;;16.40;;
30301;SDS011;17111;52.130;5.028;2024-03-17T13:07:54;21.77;;;15.15;;
30301;SDS011;17111;52.130;5.028;2024-03-17T13:10:22;24.45;;;15.70;;
30301;SDS011;17111;52.130;5.028;2024-03-17T13:12:57;23.80;;;15.90;;
30301;SDS011;17111;52.130;5.028;2024-03-17T13:15:26;19.52;;;14.02;;
30301;SDS011;17111;52.130;5.028;2024-03-17T13:17:51;18.88;;;12.98;;
30301;SDS011;17111;52.130;5.028;2024-03-17T13:20:17;19.33;;;12.77;;
30301;SDS011;17111;52.130;5.028;2024-03-17T13:22:43;22.95;;;14.32;;
30301;SDS011;17111;52.130;5.028;2024-03-17T13:25:14;19.08;;;12.75;;
30301;SDS011;17111;52.130;5.028;2024-03-17T13:27:44;18.02;;;12.18;;
30301;SDS011;17111;52.130;5.028;2024-03-17T13:30:14;17.77;;;12.02;;
30301;SDS011;17111;52.130;5.028;2024-03-17T13:32:41;17.13;;;11.45;;
30301;SDS011;17111;52.130;5.028;2024-03-17T13:35:16;17.42;;;11.52;;
30301;SDS011;17111;52.130;5.028;2024-03-17T13:37:46;17.30;;;11.23;;
30301;SDS011;17111;52.130;5.028;2024-03-17T13:40:13;16.05;;;11.20;;
30301;SDS011;17111;52.130;5.028;2024-03-17T13:42:45;15.23;;;10.00;;
30301;SDS011;17111;52.130;5.028;2024-03-17T13:45:12;17.50;;;10.07;;
30301;SDS011;17111;52.130;5.028;2024-03-17T13:47:39;15.50;;;10.77;;
30301;SDS011;17111;52.130;5.028;2024-03-17T13:50:06;14.57;;;9.48;;
30301;SDS011;17111;52.130;5.028;2024-03-17T13:52:39;13.98;;;9.52;;
30301;SDS011;17111;52.130;5.028;2024-03-17T13:55:05;12.98;;;9.57;;
30301;SDS011;17111;52.130;5.028;2024-03-17T13:57:36;13.23;;;8.73;;
30301;SDS011;17111;52.130;5.028;2024-03-17T14:00:02;14.20;;;9.20;;
30301;SDS011;17111;52.130;5.028;2024-03-17T14:02:29;14.02;;;8.20;;
30301;SDS011;17111;52.130;5.028;2024-03-17T14:04:54;13.68;;;8.85;;
30301;SDS011;17111;52.130;5.028;2024-03-17T14:07:20;12.93;;;8.93;;
30301;SDS011;17111;52.130;5.028;2024-03-17T14:09:46;12.52;;;8.57;;
30301;SDS011;17111;52.130;5.028;2024-03-17T14:12:12;13.18;;;8.18;;
30301;SDS011;17111;52.130;5.028;2024-03-17T14:14:37;11.45;;;8.05;;
30301;SDS011;17111;52.130;5.028;2024-03-17T14:17:03;12.45;;;7.88;;
30301;SDS011;17111;52.130;5.028;2024-03-17T14:19:29;11.38;;;8.15;;
30301;SDS011;17111;52.130;5.028;2024-03-17T14:21:54;13.13;;;8.23;;
30301;SDS011;17111;52.130;5.028;2024-03-17T14:24:20;10.27;;;7.15;;
30301;SDS011;17111;52.130;5.028;2024-03-17T14:26:46;11.55;;;6.90;;
30301;SDS011;17111;52.130;5.028;2024-03-17T14:29:12;10.40;;;7.32;;
30301;SDS011;17111;52.130;5.028;2024-03-17T14:31:37;12.68;;;7.30;;
30301;SDS011;17111;52.130;5.028;2024-03-17T14:34:04;9.75;;;6.60;;
30301;SDS011;17111;52.130;5.028;2024-03-17T14:36:34;8.88;;;5.93;;
30301;SDS011;17111;52.130;5.028;2024-03-17T14:38:59;9.95;;;6.93;;
30301;SDS011;17111;52.130;5.028;2024-03-17T14:41:29;11.90;;;6.60;;
30301;SDS011;17111;52.130;5.028;2024-03-17T14:43:56;9.57;;;6.35;;
30301;SDS011;17111;52.130;5.028;2024-03-17T14:46:23;9.57;;;6.00;;
30301;SDS011;17111;52.130;5.028;2024-03-17T14:48:52;7.88;;;5.85;;
30301;SDS011;17111;52.130;5.028;2024-03-17T14:51:19;9.23;;;6.13;;
30301;SDS011;17111;52.130;5.028;2024-03-17T14:53:46;9.38;;;5.93;;
30301;SDS011;17111;52.130;5.028;2024-03-17T14:56:19;7.80;;;6.03;;
30301;SDS011;17111;52.130;5.028;2024-03-17T14:58:45;9.93;;;6.13;;
30301;SDS011;17111;52.130;5.028;2024-03-17T15:01:16;13.27;;;5.55;;
30301;SDS011;17111;52.130;5.028;2024-03-17T15:03:41;7.82;;;5.45;;
30301;SDS011;17111;52.130;5.028;2024-03-17T15:06:14;7.75;;;5.20;;
30301;SDS011;17111;52.130;5.028;2024-03-17T15:08:43;8.73;;;5.07;;
30301;SDS011;17111;52.130;5.028;2024-03-17T15:11:10;8.27;;;5.68;;
30301;SDS011;17111;52.130;5.028;2024-03-17T15:13:36;7.13;;;5.13;;
30301;SDS011;17111;52.130;5.028;2024-03-17T15:16:05;7.72;;;5.70;;
30301;SDS011;17111;52.130;5.028;2024-03-17T15:18:31;6.60;;;5.25;;